• Join FlightAware (Why Join?)
  • Login
  • US Flag 
12:21AM EDT


 

Airport Tracker/Info


-or-


 

Live Flight TrackerFlight Track Log ✈ EJA122 ✈ 02-Jun-2013 ✈ KSLN - KIWA

Flight Track Log - Related Links

Times and Time Zones

All times are in EDT time to prevent confusion due to time zone crossing. See the EJA122 flight status page for this flight to view local times or setup timezone preferences in your user account.

Time Position Orientation Groundspeed Altitude Reporting Facility
EDT Latitude Longitude Course Direction KTS MPH feet Rate Location/Type
09:33PM 38.7439 -97.7114 238° Southwest 232 267 5,500  Level Kansas City Center
09:34PM 38.7311 -97.8000 260° West 259 298 8,300 2,340 Climbing Kansas City Center
09:35PM 38.7197 -97.8892 261° West 277 319 10,400 1,860 Climbing Kansas City Center
09:36PM 38.8370 -98.2206 261° West  Level FlightAware Approximate
09:36PM 38.7061 -97.9928 260° West 286 329 12,200  Level Kansas City Center
09:37PM 38.8256 -98.3513 264° West  Level FlightAware Approximate
09:37PM 38.6886 -98.1192 260° West 311 358 13,400  Level Kansas City Center
09:38PM 38.6722 -98.2358 260° West 333 383 14,500 1,020 Climbing Kansas City Center
09:39PM 38.6558 -98.3553 260° West 342 394 15,500 960 Climbing Kansas City Center
09:40PM 38.6392 -98.4767 260° West 347 399 16,500 960 Climbing Kansas City Center
09:41PM 38.6228 -98.5964 260° West 345 397 17,500 900 Climbing Kansas City Center
09:42PM 38.6053 -98.7178 260° West 348 400 18,400 960 Climbing Kansas City Center
09:43PM 38.5878 -98.8375 259° West 344 396 19,500 1,260 Climbing Kansas City Center
09:44PM 38.5703 -98.9561 259° West 343 395 21,000 1,560 Climbing Kansas City Center
09:45PM 38.5500 -99.0967 260° West 338 389 22,800 1,620 Climbing Kansas City Center
09:46PM 38.5325 -99.2183 260° West 346 398 24,400 1,500 Climbing Kansas City Center
09:47PM 38.5128 -99.3392 258° West 347 399 25,900 1,380 Climbing Kansas City Center
09:48PM 38.4931 -99.4600 258° West 348 400 27,300 1,080 Climbing Kansas City Center
09:49PM 38.4725 -99.5853 258° West 352 405 28,200 840 Climbing Kansas City Center
09:50PM 38.4500 -99.7269 259° West 363 418 29,100 780 Climbing Kansas City Center
09:51PM 38.4292 -99.8536 258° West 376 433 29,900 720 Climbing Kansas City Center
09:52PM 38.4083 -99.9811 258° West 382 440 30,600 720 Climbing Kansas City Center
09:53PM 38.3828 -100.1297 258° West 385 443 31,400 720 Climbing Kansas City Center
09:54PM 38.3617 -100.2564 258° West 384 442 32,100 780 Climbing Kansas City Center
09:56PM 38.3375 -100.4036 258° West 381 438 33,000 780 Climbing Kansas City Center
09:57PM 38.3156 -100.5281 257° West 379 436 33,700 480 Climbing Kansas City Center
09:58PM 38.2939 -100.6525 258° West 378 435 34,000 120 Climbing Kansas City Center
09:59PM 38.2681 -100.8028 258° West 388 447 34,000  Level Kansas City Center
10:00PM 38.2456 -100.9314 257° West 391 450 34,000  Level Kansas City Center
10:01PM 38.2181 -101.0856 257° West 399 459 34,000  Level Kansas City Center
10:01PM 38.2031 -101.1692 257° West 396 456 34,000  Level Denver Center
10:02PM 38.1772 -101.3189 258° West 391 450 34,000  Level Denver Center
10:03PM 38.1533 -101.4453 257° West 387 445 34,000 180 Level Denver Center
10:04PM 38.1269 -101.5917 257° West 384 442 34,400 480 Climbing Denver Center
10:05PM 38.1053 -101.7139 257° West 375 432 35,000 240 Climbing Denver Center
10:07PM 38.0781 -101.8617 257° West 386 444 35,000  Level Denver Center
10:08PM 38.0567 -101.9714 256° West 398 458 35,000  Level Denver Center
10:09PM 38.0253 -102.1444 257° West 398 458 35,000 60 Level Denver Center
10:10PM 38.0025 -102.2731 257° West 394 453 35,200 360 Climbing Denver Center
10:11PM 37.9753 -102.4158 256° West 377 434 35,800 480 Climbing Denver Center
10:12PM 37.9517 -102.5439 257° West 365 420 36,300 480 Climbing Denver Center
10:13PM 37.9286 -102.6597 256° West 356 410 36,800 480 Climbing Denver Center
10:14PM 37.9039 -102.7914 257° West 347 399 37,400 480 Climbing Denver Center
10:15PM 37.8825 -102.9028 256° West 340 391 37,900 240 Climbing Denver Center
10:16PM 37.8606 -103.0119 256° West 335 386 38,000  Climbing Denver Center
10:17PM 37.8353 -103.1428 256° West 342 394 38,000  Level Denver Center
10:18PM 37.8122 -103.2575 256° West 351 404 38,000  Level Denver Center
10:19PM 37.7869 -103.3917 257° West 354 407 38,000  Level Denver Center
10:20PM 37.7633 -103.5083 256° West 357 411 38,000  Level Denver Center
10:21PM 37.7364 -103.6439 256° West 358 412 38,000  Level Denver Center
10:22PM 37.7092 -103.7833 256° West 367 422 38,000  Level Denver Center
10:23PM 37.6808 -103.9250 256° West 375 432 38,000  Level Denver Center
10:24PM 37.6569 -104.0472 256° West 380 437 38,000  Level Denver Center
10:25PM 37.6258 -104.1872 254° West 377 434 38,000  Level Denver Center
10:26PM 37.6008 -104.3078 255° West 374 430 38,000  Level Denver Center
10:27PM 37.5711 -104.4497 255° West 376 433 38,000  Level Denver Center
10:28PM 37.5456 -104.5728 255° West 380 437 38,000  Level Denver Center
10:29PM 37.5156 -104.7167 255° West 380 437 38,000  Level Denver Center
10:30PM 37.4897 -104.8389 255° West 378 435 38,000  Level Denver Center
10:31PM 37.4592 -104.9833 255° West 382 440 38,000  Level Denver Center
10:32PM 37.4336 -105.1067 255° West 381 438 38,000  Level Denver Center
10:33PM 37.4058 -105.2400 255° West 386 444 38,000  Level Denver Center
10:34PM 37.3781 -105.3669 255° West 391 450 38,000  Level Denver Center
10:36PM 37.3444 -105.5144 254° West 394 453 38,000  Level Denver Center
10:37PM 37.3172 -105.6414 255° West 393 452 38,000  Level Denver Center
10:38PM 37.2842 -105.7872 254° West 391 450 38,000  Level Denver Center
10:39PM 37.2567 -105.9119 255° West 389 448 38,000  Level Denver Center
10:40PM 37.2247 -106.0567 255° West 386 444 38,000  Level Denver Center
10:41PM 37.2022 -106.1608 255° West 388 447 38,000  Level Denver Center
10:42PM 37.1697 -106.3067 254° West 391 450 38,000  Level Denver Center
10:43PM 37.1350 -106.4533 254° West 393 452 38,000  Level Denver Center
10:44PM 37.1067 -106.5814 255° West 398 458 38,000  Level Denver Center
10:45PM 37.0714 -106.7311 254° West 402 463 38,000  Level Denver Center
10:46PM 37.0192 -106.8469 241° Southwest 404 465 38,000  Level Denver Center
10:47PM 36.9419 -106.9411 224° Southwest 403 464 38,000  Level Denver Center
10:48PM 36.8481 -107.0469 222° Southwest 406 467 38,000  Level Denver Center
10:49PM 36.7706 -107.1386 223° Southwest 403 464 38,000  Level Denver Center
10:50PM 36.6803 -107.2414 222° Southwest 394 453 38,000  Level Denver Center
10:51PM 36.6061 -107.3278 223° Southwest 384 442 38,000  Level Denver Center
10:52PM 36.5314 -107.4136 223° Southwest 381 438 38,000  Level Denver Center
10:53PM 36.4342 -107.5242 222° Southwest 372 428 38,000  Level Denver Center
10:54PM 36.3486 -107.6244 223° Southwest 375 432 38,000  Level Albuquerque Center
10:55PM 36.2747 -107.7064 222° Southwest 374 430 38,000  Level Denver Center
10:56PM 36.2008 -107.7908 223° Southwest 376 433 38,000  Level Denver Center
10:57PM 36.1142 -107.8878 222° Southwest 376 433 38,000  Level Denver Center
10:58PM 36.0403 -107.9722 223° Southwest 376 433 38,000  Level Denver Center
10:59PM 35.9653 -108.0547 222° Southwest 376 433 38,000  Level Denver Center
11:00PM 35.8792 -108.1536 223° Southwest 375 432 38,000  Level Albuquerque Center
11:01PM 35.7942 -108.2514 223° Southwest 374 430 38,000 -60 Level Albuquerque Center
11:02PM 35.7208 -108.3358 223° Southwest 374 430 37,900 -780 Descending Albuquerque Center
11:03PM 35.6447 -108.4225 223° Southwest 380 437 36,500 -1,620 Descending Albuquerque Center
11:04PM 35.5539 -108.5283 223° Southwest 395 455 34,700 -1,260 Descending Albuquerque Center
11:05PM 35.4744 -108.6189 223° Southwest 403 464 34,000 -360 Descending Albuquerque Center
11:07PM 35.3833 -108.7244 223° Southwest 402 463 34,000  Level Albuquerque Center
11:08PM 35.3039 -108.8133 222° Southwest 402 463 34,000  Level Albuquerque Center
11:09PM 35.2242 -108.9039 223° Southwest 405 466 34,000  Level Albuquerque Center
11:10PM 35.1289 -109.0097 222° Southwest 411 473 34,000  Level Albuquerque Center
11:11PM 35.0483 -109.1025 223° Southwest 412 474 34,000  Level Albuquerque Center
11:12PM 34.9694 -109.1911 223° Southwest 406 467 34,000 -60 Level Albuquerque Center
11:13PM 34.8775 -109.2933 222° Southwest 402 463 33,900 -1,020 Descending Albuquerque Center
11:14PM 34.7969 -109.3828 222° Southwest 406 467 32,000 -1,920 Descending Albuquerque Center
11:15PM 34.7200 -109.4706 223° Southwest 399 459 30,100 -1,020 Descending Albuquerque Center
11:16PM 34.6581 -109.5928 238° Southwest 383 441 30,000 -60 Descending Albuquerque Center
11:17PM 34.6042 -109.7008 239° Southwest 386 444 30,000  Level Albuquerque Center
11:18PM 34.5478 -109.8108 238° Southwest 395 455 30,000  Level Albuquerque Center
11:19PM 34.4806 -109.9461 239° Southwest 411 473 30,000 -300 Level Albuquerque Center
11:20PM 34.4217 -110.0619 238° Southwest 418 481 29,500 -1,440 Descending Albuquerque Center
11:21PM 34.3567 -110.1969 240° Southwest 417 480 27,100 -2,160 Descending Albuquerque Center
11:22PM 34.3050 -110.3111 241° Southwest 408 470 25,200 -1,920 Descending Albuquerque Center
11:23PM 34.2525 -110.4261 241° Southwest 388 447 23,300 -1,800 Descending Albuquerque Center
11:24PM 34.2064 -110.5275 241° Southwest 356 410 21,600 -1,620 Descending Albuquerque Center
11:25PM 34.1575 -110.6206 238° Southwest 337 388 20,000 -1,560 Descending Albuquerque Center
11:26PM 34.0786 -110.6808 212° Southwest 335 386 18,500 -1,560 Descending Albuquerque Center
11:27PM 33.9914 -110.7389 209° Southwest 329 379 16,900 -1,560 Descending Albuquerque Center
11:28PM 33.9139 -110.7922 210° Southwest 323 372 15,400 -1,440 Descending Albuquerque Center
11:29PM 33.8383 -110.8464 211° Southwest 319 367 14,000 -1,140 Descending Albuquerque Center
11:30PM 33.7889 -110.9225 232° Southwest 294 338 13,200 -780 Descending Albuquerque Center
11:31PM 33.7392 -110.9989 232° Southwest 291 335 12,500 -780 Descending Albuquerque Center
11:32PM 33.6886 -111.0761 232° Southwest 294 338 11,700 -780 Descending Albuquerque Center
11:33PM 33.6378 -111.1531 232° Southwest 294 338 11,000 -840 Descending Albuquerque Center
11:34PM 33.5900 -111.2322 234° Southwest 291 335 10,000 -1,020 Descending Albuquerque Center
11:35PM 33.5425 -111.3103 234° Southwest 289 333 9,000 -1,080 Descending Albuquerque Center
11:36PM 33.4939 -111.3842 232° Southwest 283 326 7,900 -840 Descending Albuquerque Center
11:37PM 33.4317 -111.4331 213° Southwest 267 307 7,400 -480 Descending Albuquerque Center
11:38PM 33.3756 -111.4744 212° Southwest 243 280 7,000 -960 Descending Albuquerque Center
11:39PM 33.3167 -111.4833 187° South 260 299 5,900 -1,620 Descending Phoenix TRACON
11:40PM 33.2500 -111.4667 168° South 245 282 4,500 -1,140 Descending Phoenix TRACON
11:41PM 33.2167 -111.5167 231° Southwest 161 185 3,700 -660 Descending Phoenix TRACON
11:42PM 33.2333 -111.5500 301° West 129 148 3,200 -480 Descending Phoenix TRACON
11:43PM 33.2500 -111.5833 301° West 116 133 2,800 -540 Descending Phoenix TRACON
11:44PM 33.2667 -111.6167 301° West 115 132 2,200 -600 Descending Phoenix TRACON
11:45PM 33.2833 -111.6333 320° Northwest 111 128 1,600 -600 Descending Phoenix TRACON
11:45PM 33.2992 -111.6503 318° Northwest 112 129 1,300 -600 Descending Albuquerque Center